KLNR/LNR METAR and TAF weather

Enter ICAO airport designator
Station Type Date Time Source
KLNR METAR 2020/06/05 08:56 UTC NOAA

KLNR 050856Z AUTO 00000KT 10SM CLR 20/18 A2977 RMK AO2 SLP069 T02000178 58014


Station Type Date Time Source
KLNR Decoded METAR 2020/06/05 08:56 UTC NOAA

LONE ROCK TRI-COUNTY REG, WI, United States (KLNR) 43-13N 090-11W 217M
Jun 05, 2020 - 04:56 AM EDT / 2020.06.05 0856 UTC
Wind: Calm:0
Visibility: 10 mile(s):0
Sky conditions: clear
Temperature: 68.0 F (20.0 C)
Dew Point: 64.0 F (17.8 C)
Relative Humidity: 87%
Pressure (altimeter): 29.77 in. Hg (1008 hPa)
Pressure tendency: 0.04 inches (1.4 hPa) lower than three hours ago
ob: KLNR 050856Z AUTO 00000KT 10SM CLR 20/18 A2977 RMK AO2 SLP069 T02000178 58014
cycle: 9

Station Type Date Time Source
KLNR TAF UTC NOAA

Error!

Example: see airport list